createdAt,value
2023-01-15T00:02:26.557Z,99396.81
2023-01-15T00:05:12.842Z,99392.50
2023-01-15T00:08:00.029Z,99365.41
2023-01-15T00:10:46.030Z,99353.88
2023-01-15T00:13:32.043Z,99348.06
2023-01-15T00:16:18.249Z,99338.19
2023-01-15T00:19:08.093Z,99313.91
2023-01-15T00:21:53.975Z,99306.28
2023-01-15T00:24:59.351Z,99307.94
2023-01-15T00:27:50.624Z,99288.13
2023-01-15T00:30:40.378Z,99326.75
2023-01-15T00:33:27.029Z,99322.41
2023-01-15T00:36:13.239Z,99320.72
2023-01-15T00:38:59.549Z,99338.53
2023-01-15T00:41:47.115Z,99349.41
2023-01-15T00:44:33.863Z,99358.28
2023-01-15T00:47:19.966Z,99359.59
2023-01-15T00:50:08.455Z,99361.38
2023-01-15T00:52:54.619Z,99369.94
2023-01-15T00:55:41.486Z,99363.28
2023-01-15T00:58:28.811Z,99350.25
2023-01-15T01:01:15.676Z,99352.84
2023-01-15T01:04:01.974Z,99334.03
2023-01-15T01:06:47.631Z,99344.56
2023-01-15T01:09:33.665Z,99333.84
2023-01-15T01:12:21.137Z,99333.09
2023-01-15T01:15:09.829Z,99339.53
2023-01-15T01:17:56.352Z,99349.06
2023-01-15T01:20:42.839Z,99348.50
2023-01-15T01:23:29.583Z,99339.78
2023-01-15T01:26:16.130Z,99347.97
2023-01-15T01:29:03.276Z,99396.56
2023-01-15T01:31:51.103Z,99384.75
2023-01-15T01:34:37.601Z,99387.09
2023-01-15T01:37:23.506Z,99386.56
2023-01-15T01:40:09.957Z,99395.59
2023-01-15T01:42:56.556Z,99384.19
2023-01-15T01:45:42.914Z,99383.94
2023-01-15T01:48:31.946Z,99344.22
2023-01-15T01:51:17.725Z,99347.00
2023-01-15T01:54:03.691Z,99341.22
2023-01-15T01:56:49.456Z,99336.97
2023-01-15T01:59:35.356Z,99321.84
2023-01-15T02:02:22.647Z,99317.72
2023-01-15T02:05:10.391Z,99318.19
2023-01-15T02:07:57.197Z,99326.53
2023-01-15T02:10:43.001Z,99334.44
2023-01-15T02:13:32.215Z,99321.72
2023-01-15T02:16:19.066Z,99312.47
2023-01-15T02:19:07.319Z,99296.00
2023-01-15T02:22:02.254Z,99289.22
2023-01-15T02:24:50.978Z,99266.22
2023-01-15T02:27:38.570Z,99266.88
2023-01-15T02:30:25.890Z,99241.00
2023-01-15T02:33:16.694Z,99204.97
2023-01-15T02:36:06.397Z,99161.38
2023-01-15T02:38:54.282Z,99129.38
2023-01-15T02:41:42.783Z,99102.78
2023-01-15T02:44:31.631Z,99076.75
2023-01-15T02:47:20.318Z,99023.50
2023-01-15T02:50:07.488Z,98982.03
2023-01-15T02:53:00.235Z,98969.03
2023-01-15T02:55:50.621Z,98945.19
2023-01-15T02:58:40.062Z,98932.66
2023-01-15T03:01:30.114Z,98912.56
2023-01-15T03:04:17.503Z,98893.66
2023-01-15T03:07:06.749Z,98889.69
2023-01-15T03:09:54.471Z,98882.63
2023-01-15T03:13:02.186Z,98880.97
2023-01-15T03:16:12.223Z,98871.44
2023-01-15T03:19:01.605Z,98890.19
2023-01-15T03:21:48.695Z,98888.53
2023-01-15T03:24:40.995Z,98893.78
2023-01-15T03:27:28.018Z,98908.59
2023-01-15T03:30:16.597Z,98923.72
2023-01-15T03:33:02.556Z,98942.00
2023-01-15T03:35:52.680Z,98972.75
2023-01-15T03:38:53.221Z,98977.84
2023-01-15T03:42:00.810Z,98978.66
2023-01-15T03:44:48.903Z,98996.94
2023-01-15T03:47:39.577Z,99005.34
2023-01-15T03:50:29.655Z,99006.97
2023-01-15T03:53:19.301Z,99016.84
2023-01-15T03:56:12.405Z,99004.34
2023-01-15T03:59:03.464Z,99010.13
2023-01-15T04:02:06.991Z,99004.03
2023-01-15T04:04:53.269Z,99017.03
2023-01-15T04:07:39.680Z,99015.53
2023-01-15T04:10:26.798Z,99005.69
2023-01-15T04:13:14.466Z,98997.94
2023-01-15T04:16:01.910Z,99000.72
2023-01-15T04:18:48.193Z,99002.69
2023-01-15T04:21:34.488Z,98984.13
2023-01-15T04:24:20.288Z,98996.59
2023-01-15T04:27:07.268Z,98998.56
2023-01-15T04:29:52.842Z,99003.84
2023-01-15T04:32:38.719Z,99001.88
2023-01-15T04:35:24.625Z,98995.78
2023-01-15T04:38:10.506Z,98983.63
2023-01-15T04:41:14.057Z,98989.69
2023-01-15T04:44:07.466Z,99003.69
2023-01-15T04:46:54.067Z,99012.41
2023-01-15T04:49:40.094Z,99013.22
2023-01-15T04:52:25.848Z,99015.84
2023-01-15T04:55:11.610Z,99009.94
2023-01-15T04:57:57.353Z,99005.34
2023-01-15T05:00:44.414Z,99010.91
2023-01-15T05:03:30.205Z,98994.97
2023-01-15T05:06:17.569Z,99003.03
2023-01-15T05:09:04.193Z,98998.75
2023-01-15T05:11:50.235Z,98996.94
2023-01-15T05:14:36.099Z,98978.50
2023-01-15T05:17:23.186Z,98977.53
2023-01-15T05:20:09.518Z,98978.66
2023-01-15T05:22:55.233Z,98969.78
2023-01-15T05:25:40.972Z,98970.44
2023-01-15T05:28:26.776Z,98975.88
2023-01-15T05:31:13.349Z,98982.59
2023-01-15T05:34:00.370Z,98972.41
2023-01-15T05:36:46.230Z,98964.84
2023-01-15T05:39:32.023Z,98954.81
2023-01-15T05:42:17.705Z,98960.09
2023-01-15T05:45:03.895Z,98958.28
2023-01-15T05:47:49.625Z,98973.91
2023-01-15T05:50:36.729Z,98952.03
2023-01-15T05:53:22.461Z,98951.88
2023-01-15T05:56:08.494Z,98950.22
2023-01-15T05:58:54.891Z,98950.06
2023-01-15T06:01:41.038Z,98955.66
2023-01-15T06:04:27.115Z,98981.66
2023-01-15T06:07:14.491Z,98969.47
2023-01-15T06:10:00.468Z,98979.69
2023-01-15T06:12:47.169Z,98960.25
2023-01-15T06:15:32.942Z,98964.25
2023-01-15T06:18:18.604Z,98962.44
2023-01-15T06:21:04.514Z,98952.75
2023-01-15T06:23:51.663Z,98944.84
2023-01-15T06:26:38.281Z,98917.53
2023-01-15T06:29:24.080Z,98917.81
2023-01-15T06:32:09.959Z,98917.16
2023-01-15T06:34:55.723Z,98909.94
2023-01-15T06:37:41.421Z,98873.78
2023-01-15T06:40:29.491Z,98859.78
2023-01-15T06:43:32.884Z,98843.19
2023-01-15T06:46:36.887Z,98838.03
2023-01-15T06:49:22.962Z,98822.13
2023-01-15T06:52:08.891Z,98819.97
2023-01-15T06:54:54.794Z,98811.59
2023-01-15T06:57:42.090Z,98813.22
2023-01-15T07:00:27.959Z,98800.91
2023-01-15T07:03:14.364Z,98794.81
2023-01-15T07:06:00.580Z,98788.72
2023-01-15T07:08:46.391Z,98776.22
2023-01-15T07:11:32.295Z,98771.78
2023-01-15T07:14:20.253Z,98767.50
2023-01-15T07:17:06.678Z,98772.09
2023-01-15T07:19:52.473Z,98769.78
2023-01-15T07:22:38.390Z,98774.22
2023-01-15T07:25:24.111Z,98774.06
2023-01-15T07:28:10.040Z,98762.03
2023-01-15T07:31:00.170Z,98758.25
2023-01-15T07:33:46.022Z,98745.91
2023-01-15T07:36:31.862Z,98752.50
2023-01-15T07:39:17.675Z,98744.44
2023-01-15T07:42:26.646Z,98754.47
2023-01-15T07:45:30.264Z,98734.56
2023-01-15T07:48:35.164Z,98726.69
2023-01-15T07:51:21.407Z,98717.78
2023-01-15T07:54:07.190Z,98710.56
2023-01-15T07:56:53.500Z,98703.66
2023-01-15T07:59:39.725Z,98705.63
2023-01-15T08:02:25.462Z,98705.63
2023-01-15T08:05:12.894Z,98691.47
2023-01-15T08:07:58.891Z,98692.28
2023-01-15T08:11:06.515Z,98690.66
2023-01-15T08:14:10.298Z,98707.13
2023-01-15T08:16:57.051Z,98698.06
2023-01-15T08:19:42.989Z,98686.88
2023-01-15T08:22:30.232Z,98684.75
2023-01-15T08:25:17.178Z,98693.28
2023-01-15T08:28:03.371Z,98688.19
2023-01-15T08:30:49.224Z,98684.41
2023-01-15T08:33:35.133Z,98690.50
2023-01-15T08:36:20.953Z,98693.78
2023-01-15T08:39:08.086Z,98695.41
2023-01-15T08:41:53.934Z,98696.06
2023-01-15T08:44:39.782Z,98684.38
2023-01-15T08:47:25.564Z,98685.22
2023-01-15T08:50:12.625Z,98678.94
2023-01-15T08:52:58.492Z,98694.09
2023-01-15T08:55:45.483Z,98678.31
2023-01-15T08:58:31.534Z,98691.94
2023-01-15T09:01:17.423Z,98670.06
2023-01-15T09:04:03.444Z,98654.56
2023-01-15T09:06:49.640Z,98650.59
2023-01-15T09:09:35.706Z,98660.50
2023-01-15T09:12:24.760Z,98637.09
2023-01-15T09:15:11.682Z,98609.75
2023-01-15T09:17:57.652Z,98613.97
2023-01-15T09:20:43.574Z,98608.00
2023-01-15T09:23:29.653Z,98617.88
2023-01-15T09:26:26.824Z,98593.63
2023-01-15T09:29:14.079Z,98621.13
2023-01-15T09:32:00.601Z,98623.94
2023-01-15T09:34:46.638Z,98615.66
2023-01-15T09:37:32.566Z,98616.94
2023-01-15T09:40:21.869Z,98631.94
2023-01-15T09:43:08.064Z,98622.94
2023-01-15T09:45:56.391Z,98625.06
2023-01-15T09:48:45.820Z,98611.84
2023-01-15T09:51:33.150Z,98630.06
2023-01-15T09:54:21.438Z,98627.06
2023-01-15T09:57:09.168Z,98634.66
2023-01-15T10:00:00.793Z,98633.13
2023-01-15T10:02:49.279Z,98642.59
2023-01-15T10:05:36.227Z,98664.88
2023-01-15T10:08:22.576Z,98674.16
2023-01-15T10:11:15.585Z,98685.16
2023-01-15T10:14:03.781Z,98704.53
2023-01-15T10:16:49.735Z,98721.06
2023-01-15T10:19:44.425Z,98740.38
2023-01-15T10:22:41.106Z,98757.91
2023-01-15T10:25:28.643Z,98742.56
2023-01-15T10:28:18.038Z,98766.47
2023-01-15T10:31:06.218Z,98771.28
2023-01-15T10:33:55.985Z,98775.91
2023-01-15T10:36:44.320Z,98780.88
2023-01-15T10:39:31.462Z,98776.78
2023-01-15T10:42:20.630Z,98787.97
2023-01-15T10:45:07.242Z,98796.69
2023-01-15T10:47:55.089Z,98789.56
2023-01-15T10:50:41.984Z,98781.66
2023-01-15T10:53:30.444Z,98785.63
2023-01-15T10:56:17.297Z,98797.63
2023-01-15T10:59:08.472Z,98795.81
2023-01-15T11:01:55.465Z,98781.13
2023-01-15T11:04:42.272Z,98794.59
2023-01-15T11:07:32.784Z,98793.97
2023-01-15T11:10:21.428Z,98779.94
2023-01-15T11:13:31.158Z,98784.41
2023-01-15T11:16:35.513Z,98780.13
2023-01-15T11:19:40.941Z,98787.97
2023-01-15T11:22:28.725Z,98808.06
2023-01-15T11:25:15.062Z,98820.28
2023-01-15T11:28:03.906Z,98822.56
2023-01-15T11:30:54.377Z,98811.38
2023-01-15T11:33:41.041Z,98818.72
2023-01-15T11:36:27.653Z,98800.09
2023-01-15T11:39:23.687Z,98821.50
2023-01-15T11:42:38.073Z,98838.16
2023-01-15T11:45:43.107Z,98840.25
2023-01-15T11:48:48.963Z,98856.56
2023-01-15T11:51:39.177Z,98867.19
2023-01-15T11:54:25.459Z,98895.25
2023-01-15T11:57:12.179Z,98901.06
2023-01-15T11:59:58.175Z,98911.28
2023-01-15T12:02:46.219Z,98923.56
2023-01-15T12:05:33.243Z,98919.91
2023-01-15T12:08:22.221Z,98922.56
2023-01-15T12:11:25.926Z,98918.78
2023-01-15T12:14:31.676Z,98922.56
2023-01-15T12:17:21.777Z,98911.28
2023-01-15T12:20:12.596Z,98916.84
2023-01-15T12:23:02.667Z,98917.84
2023-01-15T12:25:51.033Z,98921.19
2023-01-15T12:28:37.807Z,98940.41
2023-01-15T12:31:24.790Z,98917.84
2023-01-15T12:34:15.548Z,98931.34
2023-01-15T12:37:04.095Z,98953.56
2023-01-15T12:39:50.761Z,98942.00
2023-01-15T12:42:54.448Z,98918.88
2023-01-15T12:45:41.659Z,98923.94
2023-01-15T12:48:28.268Z,98924.59
2023-01-15T12:51:15.072Z,98912.44
2023-01-15T12:54:04.315Z,98917.41
2023-01-15T12:56:55.064Z,98918.28
2023-01-15T12:59:42.488Z,98907.41
2023-01-15T13:02:29.248Z,98924.72
2023-01-15T13:05:17.460Z,98923.25
2023-01-15T13:08:04.752Z,98907.25
2023-01-15T13:10:52.928Z,98908.28
2023-01-15T13:13:39.806Z,98907.47
2023-01-15T13:16:28.844Z,98902.06
2023-01-15T13:19:18.255Z,98896.44
2023-01-15T13:22:04.860Z,98901.88
2023-01-15T13:24:54.246Z,98889.00
2023-01-15T13:27:44.216Z,98889.00
2023-01-15T13:30:41.301Z,98899.09
2023-01-15T13:33:28.249Z,98900.38
2023-01-15T13:36:14.643Z,98911.94
2023-01-15T13:39:01.182Z,98903.03
2023-01-15T13:42:05.907Z,98892.16
2023-01-15T13:44:53.821Z,98897.91
2023-01-15T13:47:42.849Z,98883.53
2023-01-15T13:50:30.529Z,98887.66
2023-01-15T13:53:18.680Z,98898.19
2023-01-15T13:56:06.301Z,98891.69
2023-01-15T13:58:53.356Z,98893.63
2023-01-15T14:01:40.767Z,98912.13
2023-01-15T14:04:33.995Z,98887.72
2023-01-15T14:07:20.074Z,98901.56
2023-01-15T14:10:10.235Z,98885.59
2023-01-15T14:12:59.627Z,98885.94
2023-01-15T14:15:48.005Z,98907.94
2023-01-15T14:18:41.782Z,98906.94
2023-01-15T14:21:29.202Z,98884.50
2023-01-15T14:24:22.005Z,98895.09
2023-01-15T14:27:09.000Z,98909.13
2023-01-15T14:29:58.984Z,98907.47
2023-01-15T14:32:49.585Z,98910.28
2023-01-15T14:35:37.680Z,98912.63
2023-01-15T14:38:23.800Z,98901.06
2023-01-15T14:41:12.476Z,98915.09
2023-01-15T14:43:58.404Z,98922.84
2023-01-15T14:46:44.461Z,98909.97
2023-01-15T14:49:30.603Z,98907.66
2023-01-15T14:52:18.228Z,98932.41
2023-01-15T14:55:04.566Z,98914.56
2023-01-15T14:57:52.919Z,98937.69
2023-01-15T15:00:39.020Z,98943.78
2023-01-15T15:03:27.234Z,98950.69
2023-01-15T15:06:13.523Z,98932.41
2023-01-15T15:09:01.589Z,98944.28
2023-01-15T15:12:05.271Z,98937.03
2023-01-15T15:14:54.362Z,98936.53
2023-01-15T15:17:41.620Z,98943.66
2023-01-15T15:20:31.367Z,98939.19
2023-01-15T15:23:19.975Z,98949.09
2023-01-15T15:26:07.940Z,98937.06
2023-01-15T15:28:58.040Z,98940.03
2023-01-15T15:31:44.433Z,98950.72
2023-01-15T15:34:32.128Z,98928.81
2023-01-15T15:37:19.290Z,98948.59
2023-01-15T15:40:06.134Z,98939.03
2023-01-15T15:43:12.668Z,98947.31
2023-01-15T15:46:16.523Z,98958.03
2023-01-15T15:49:02.437Z,98968.41
2023-01-15T15:51:49.480Z,98960.19
2023-01-15T15:54:35.193Z,98965.44
2023-01-15T15:57:21.051Z,98967.44
2023-01-15T16:00:11.256Z,98948.16
2023-01-15T16:02:57.008Z,98959.84
2023-01-15T16:05:43.572Z,98973.03
2023-01-15T16:08:29.880Z,98963.63
2023-01-15T16:11:15.892Z,98976.50
2023-01-15T16:14:05.077Z,98976.97
2023-01-15T16:16:52.200Z,98974.03
2023-01-15T16:19:38.002Z,98983.59
2023-01-15T16:22:23.639Z,98967.94
2023-01-15T16:25:21.170Z,98977.66
2023-01-15T16:28:06.845Z,98973.69
2023-01-15T16:30:56.237Z,98985.22
2023-01-15T16:33:43.373Z,98982.09
2023-01-15T16:36:29.168Z,98987.53
2023-01-15T16:39:18.479Z,98974.69
2023-01-15T16:42:04.637Z,98981.94
2023-01-15T16:44:51.329Z,98973.69
2023-01-15T16:47:37.410Z,98984.41
2023-01-15T16:50:29.113Z,98996.78
2023-01-15T16:53:29.466Z,99012.25
2023-01-15T16:56:25.209Z,98989.19
2023-01-15T16:59:15.768Z,99004.84
2023-01-15T17:02:04.428Z,99001.03
2023-01-15T17:04:51.469Z,98995.28
2023-01-15T17:07:38.665Z,98995.44
2023-01-15T17:10:25.726Z,99003.03
2023-01-15T17:13:17.325Z,99015.22
2023-01-15T17:16:05.421Z,99021.47
2023-01-15T17:18:51.811Z,99021.66
2023-01-15T17:21:38.071Z,99016.88
2023-01-15T17:24:25.256Z,99027.91
2023-01-15T17:27:11.107Z,99018.03
2023-01-15T17:29:57.142Z,99033.34
2023-01-15T17:32:43.701Z,99034.00
2023-01-15T17:35:30.532Z,99038.97
2023-01-15T17:38:16.694Z,99042.41
2023-01-15T17:41:07.003Z,99040.78
2023-01-15T17:43:52.897Z,99039.66
2023-01-15T17:46:38.895Z,99052.16
2023-01-15T17:49:25.137Z,99057.13
2023-01-15T17:52:14.136Z,99047.84
2023-01-15T17:55:19.040Z,99061.88
2023-01-15T17:58:24.207Z,99053.97
2023-01-15T18:01:33.600Z,99049.50
2023-01-15T18:04:38.384Z,99060.22
2023-01-15T18:07:25.444Z,99047.03
2023-01-15T18:10:11.854Z,99053.13
2023-01-15T18:12:57.682Z,99058.09
2023-01-15T18:15:45.165Z,99044.41
2023-01-15T18:18:31.034Z,99043.41
2023-01-15T18:21:16.851Z,99056.59
2023-01-15T18:24:04.200Z,99045.22
2023-01-15T18:26:51.751Z,99060.38
2023-01-15T18:29:40.072Z,99075.88
2023-01-15T18:32:30.318Z,99084.94
2023-01-15T18:35:17.208Z,99073.25
2023-01-15T18:38:02.877Z,99077.03
2023-01-15T18:40:48.713Z,99078.19
2023-01-15T18:43:52.634Z,99082.81
2023-01-15T18:46:44.819Z,99080.31
2023-01-15T18:49:32.132Z,99081.47
2023-01-15T18:52:35.737Z,99077.19
2023-01-15T18:55:22.607Z,99084.75
2023-01-15T18:58:08.566Z,99061.38
2023-01-15T19:00:54.557Z,99081.47
2023-01-15T19:03:40.389Z,99077.84
2023-01-15T19:06:27.536Z,99086.06
2023-01-15T19:09:16.398Z,99073.72
2023-01-15T19:12:02.446Z,99082.78
2023-01-15T19:15:06.229Z,99089.88
2023-01-15T19:18:09.967Z,99094.31
2023-01-15T19:20:56.140Z,99096.63
2023-01-15T19:23:43.812Z,99098.59
2023-01-15T19:26:30.627Z,99095.97
2023-01-15T19:29:16.651Z,99090.03
2023-01-15T19:32:04.029Z,99105.34
2023-01-15T19:34:53.011Z,99111.44
2023-01-15T19:37:40.630Z,99108.16
2023-01-15T19:40:31.363Z,99115.41
2023-01-15T19:43:35.313Z,99106.19
2023-01-15T19:46:41.026Z,99116.41
2023-01-15T19:49:44.929Z,99110.47
2023-01-15T19:52:37.732Z,99108.81
2023-01-15T19:55:25.912Z,99114.75
2023-01-15T19:58:13.925Z,99117.22
2023-01-15T20:01:00.711Z,99115.75
2023-01-15T20:03:47.466Z,99128.75
2023-01-15T20:06:33.133Z,99124.06
2023-01-15T20:09:18.996Z,99113.50
2023-01-15T20:12:22.412Z,99117.13
2023-01-15T20:15:10.287Z,99105.09
2023-01-15T20:17:56.028Z,99102.09
2023-01-15T20:20:42.121Z,99106.38
2023-01-15T20:23:28.089Z,99110.00
2023-01-15T20:26:14.620Z,99111.97
2023-01-15T20:29:00.357Z,99108.34
2023-01-15T20:31:47.588Z,99109.16
2023-01-15T20:34:36.374Z,99118.88
2023-01-15T20:37:23.138Z,99116.91
2023-01-15T20:40:10.267Z,99116.06
2023-01-15T20:43:14.014Z,99114.59
2023-01-15T20:46:07.351Z,99120.84
2023-01-15T20:49:12.439Z,99112.94
2023-01-15T20:51:58.964Z,99103.06
2023-01-15T20:54:44.801Z,99108.34
2023-01-15T20:57:31.096Z,99121.34
2023-01-15T21:00:18.060Z,99117.72
2023-01-15T21:03:04.870Z,99120.53
2023-01-15T21:05:52.423Z,99112.28
2023-01-15T21:08:39.782Z,99111.63
2023-01-15T21:11:26.290Z,99110.16
2023-01-15T21:14:12.462Z,99108.34
2023-01-15T21:17:01.226Z,99112.94
2023-01-15T21:19:46.848Z,99104.22
2023-01-15T21:22:33.918Z,99108.94
2023-01-15T21:25:19.774Z,99109.28
2023-01-15T21:28:05.718Z,99112.06
2023-01-15T21:30:51.856Z,99108.94
2023-01-15T21:33:37.804Z,99117.50
2023-01-15T21:36:24.361Z,99118.16
2023-01-15T21:39:12.623Z,99103.34
2023-01-15T21:42:21.379Z,99111.25
2023-01-15T21:49:19.347Z,99110.56
2023-01-15T21:52:08.593Z,99101.03
2023-01-15T21:54:56.093Z,99106.28
2023-01-15T21:57:42.088Z,99108.25
2023-01-15T22:00:28.207Z,99106.94
2023-01-15T22:03:17.363Z,99104.47
2023-01-15T22:06:04.929Z,99102.94
2023-01-15T22:08:50.786Z,99104.25
2023-01-15T22:11:44.976Z,99096.50
2023-01-15T22:14:31.276Z,99101.25
2023-01-15T22:17:17.026Z,99093.38
2023-01-15T22:20:02.960Z,99084.63
2023-01-15T22:22:49.109Z,99089.41
2023-01-15T22:25:35.390Z,99075.25
2023-01-15T22:28:34.444Z,99082.31
2023-01-15T22:31:29.333Z,99068.00
2023-01-15T22:34:16.391Z,99076.91
2023-01-15T22:40:09.658Z,99061.56
2023-01-15T22:43:05.871Z,99062.09
2023-01-15T22:45:53.581Z,99062.75
2023-01-15T22:48:39.812Z,99062.25
2023-01-15T22:51:25.953Z,99055.16
2023-01-15T22:54:12.337Z,99055.84
2023-01-15T22:56:58.359Z,99059.44
2023-01-15T22:59:45.337Z,99060.13
2023-01-15T23:02:50.600Z,99065.88
2023-01-15T23:05:38.823Z,99059.78
2023-01-15T23:08:26.634Z,99054.38
2023-01-15T23:11:13.197Z,99057.97
2023-01-15T23:13:59.094Z,99049.94
2023-01-15T23:16:45.263Z,99048.28
2023-01-15T23:19:33.490Z,99042.34
2023-01-15T23:22:19.368Z,99034.75
2023-01-15T23:25:05.926Z,99026.88
2023-01-15T23:27:51.715Z,99014.03
2023-01-15T23:30:37.645Z,99022.84
2023-01-15T23:33:23.871Z,99016.25
2023-01-15T23:36:12.182Z,99009.00
2023-01-15T23:38:58.179Z,99007.66
2023-01-15T23:42:02.320Z,99005.34
2023-01-15T23:45:06.007Z,99003.34
2023-01-15T23:47:52.086Z,98997.34
2023-01-15T23:50:38.072Z,98996.06
2023-01-15T23:53:25.574Z,98989.28
2023-01-15T23:56:11.826Z,98990.28
2023-01-15T23:58:57.731Z,98983.53
